Current Weather

Buckeye Muni

Buckeye, Arizona (KBXK)

Report from: Thursday, July 18, 2024 7:55 AM MST
Current time: Thursday, July 18, 2024 8:10 AM MST

Nearby weather – Weather history – Daily summaries
Weather forecast

Temperature31.0°C (87.8°F)
Heat index31.4°C (88.5°F)
Dew point17.0°C (62.6°F)
Winds 4 kts (2.1 m/s, 4.6 mph) East (100°)
Visibility9 mi. (14.5 km)
Clouds Sky clear
Altimeter29.95 in.Hg (1014 mB)
Relative humidity43 %
Density altitude2,064 ft. (629 m)
Remarks Fully automated report
Flight conditions Visual Meteorological Conditions
Raw dataKBXK 181455Z AUTO 10004KT 9SM CLR 31/17 A2995 RMK A01
An error has occurred. This application may no longer respond until reloaded. Reload 🗙